createdAt,value
2022-08-18T00:01:43.400Z,10.80
2022-08-18T00:04:25.211Z,10.35
2022-08-18T00:06:39.258Z,8.63
2022-08-18T00:09:07.108Z,7.93
2022-08-18T00:11:40.594Z,9.70
2022-08-18T00:14:02.237Z,8.67
2022-08-18T00:16:30.096Z,8.67
2022-08-18T00:18:57.651Z,9.70
2022-08-18T00:21:25.224Z,10.23
2022-08-18T00:23:53.084Z,9.37
2022-08-18T00:26:20.649Z,10.25
2022-08-18T00:28:48.222Z,10.27
2022-08-18T00:31:16.181Z,10.43
2022-08-18T00:33:43.733Z,11.03
2022-08-18T00:36:11.288Z,10.40
2022-08-18T00:38:38.892Z,8.60
2022-08-18T00:41:06.466Z,10.47
2022-08-18T00:43:44.181Z,11.20
2022-08-18T00:46:11.735Z,9.37
2022-08-18T00:48:39.301Z,10.43
2022-08-18T00:51:12.488Z,10.50
2022-08-18T00:53:42.965Z,8.50
2022-08-18T00:56:11.400Z,8.20
2022-08-18T00:58:38.115Z,11.50
2022-08-18T01:01:05.723Z,9.93
2022-08-18T01:03:33.262Z,8.53
2022-08-18T01:06:00.837Z,10.10
2022-08-18T01:08:29.173Z,9.00
2022-08-18T01:10:55.964Z,10.03
2022-08-18T01:13:23.564Z,9.00
2022-08-18T01:15:51.117Z,12.18
2022-08-18T01:18:36.988Z,10.52
2022-08-18T01:21:31.488Z,10.83
2022-08-18T01:23:59.063Z,9.70
2022-08-18T01:26:26.731Z,9.40
2022-08-18T01:28:54.284Z,12.55
2022-08-18T01:31:33.965Z,10.20
2022-08-18T01:34:01.536Z,9.73
2022-08-18T01:36:29.094Z,10.40
2022-08-18T01:38:56.677Z,12.23
2022-08-18T01:41:30.349Z,10.23
2022-08-18T01:43:51.825Z,8.77
2022-08-18T01:46:23.247Z,10.37
2022-08-18T01:48:50.804Z,10.73
2022-08-18T01:51:18.387Z,9.30
2022-08-18T01:53:45.923Z,12.00
2022-08-18T01:56:13.487Z,9.43
2022-08-18T01:58:41.041Z,10.47
2022-08-18T02:01:08.615Z,10.40
2022-08-18T02:03:36.179Z,10.20
2022-08-18T02:06:03.744Z,9.33
2022-08-18T02:08:31.328Z,10.20
2022-08-18T02:10:58.882Z,9.87
2022-08-18T02:13:26.457Z,11.45
2022-08-18T02:15:54.080Z,12.98
2022-08-18T02:18:25.921Z,9.30
2022-08-18T02:20:49.198Z,11.97
2022-08-18T02:23:16.792Z,10.00
2022-08-18T02:25:44.338Z,10.97
2022-08-18T02:28:11.902Z,10.57
2022-08-18T02:30:39.761Z,10.90
2022-08-18T02:33:07.335Z,11.47
2022-08-18T02:35:34.896Z,8.97
2022-08-18T02:38:02.480Z,11.02
2022-08-18T02:40:30.045Z,12.02
2022-08-18T02:42:58.369Z,11.20
2022-08-18T02:45:25.942Z,10.90
2022-08-18T02:47:53.505Z,12.23
2022-08-18T02:50:21.059Z,12.27
2022-08-18T02:52:48.633Z,12.95
2022-08-18T02:55:16.201Z,12.73
2022-08-18T02:57:43.802Z,10.43
2022-08-18T03:00:11.377Z,12.73
2022-08-18T03:02:38.931Z,10.83
2022-08-18T03:05:06.534Z,12.57
2022-08-18T03:07:34.183Z,11.37
2022-08-18T03:10:31.248Z,11.73
2022-08-18T03:12:29.306Z,10.53
2022-08-18T03:14:56.901Z,10.73
2022-08-18T03:17:25.232Z,10.83
2022-08-18T03:19:52.892Z,10.60
2022-08-18T03:22:28.353Z,10.23
2022-08-18T03:24:47.914Z,11.60
2022-08-18T03:27:15.489Z,10.33
2022-08-18T03:29:43.082Z,12.37
2022-08-18T03:32:11.405Z,12.77
2022-08-18T03:34:38.972Z,12.73
2022-08-18T03:37:06.554Z,11.80
2022-08-18T03:39:34.190Z,12.00
2022-08-18T03:42:02.199Z,13.63
2022-08-18T03:44:31.904Z,13.98
2022-08-18T03:46:59.469Z,12.27
2022-08-18T03:49:27.106Z,13.32
2022-08-18T03:51:54.629Z,11.73
2022-08-18T03:54:22.945Z,12.37
2022-08-18T03:56:50.484Z,10.83
2022-08-18T03:59:18.181Z,11.97
2022-08-18T04:01:45.768Z,11.40
2022-08-18T04:04:13.265Z,15.70
2022-08-18T04:06:43.808Z,12.37
2022-08-18T04:09:11.347Z,11.53
2022-08-18T04:11:38.912Z,12.00
2022-08-18T04:14:06.506Z,13.10
2022-08-18T04:16:34.110Z,13.47
2022-08-18T04:19:05.189Z,14.95
2022-08-18T04:21:32.774Z,12.70
2022-08-18T04:24:00.348Z,11.23
2022-08-18T04:26:27.903Z,9.90
2022-08-18T04:28:56.708Z,12.60
2022-08-18T04:31:24.222Z,10.43
2022-08-18T04:33:51.788Z,11.13
2022-08-18T04:36:20.699Z,11.70
2022-08-18T04:38:46.993Z,10.87
2022-08-18T04:41:14.554Z,11.07
2022-08-18T04:43:42.181Z,11.97
2022-08-18T04:46:10.513Z,9.97
2022-08-18T04:48:38.076Z,10.20
2022-08-18T04:51:11.529Z,11.43
2022-08-18T04:53:48.025Z,13.47
2022-08-18T04:56:27.088Z,11.83
2022-08-18T04:58:57.589Z,10.47
2022-08-18T05:01:25.210Z,13.93
2022-08-18T05:03:52.775Z,11.53
2022-08-18T05:06:21.115Z,14.57
2022-08-18T05:08:48.680Z,11.40
2022-08-18T05:11:16.282Z,13.33
2022-08-18T05:13:43.847Z,12.63
2022-08-18T05:16:18.148Z,11.70
2022-08-18T05:18:38.997Z,13.10
2022-08-18T05:21:06.589Z,11.73
2022-08-18T05:23:34.144Z,11.93
2022-08-18T05:26:01.738Z,15.10
2022-08-18T05:28:30.120Z,13.00
2022-08-18T05:31:00.438Z,11.33
2022-08-18T05:33:25.297Z,12.40
2022-08-18T05:35:52.852Z,12.37
2022-08-18T05:38:29.238Z,12.07
2022-08-18T05:41:05.636Z,11.57
2022-08-18T05:43:33.189Z,12.55
2022-08-18T05:46:01.522Z,12.53
2022-08-18T05:48:29.134Z,11.53
2022-08-18T05:50:57.459Z,13.93
2022-08-18T05:53:25.013Z,12.00
2022-08-18T05:56:10.682Z,13.70
2022-08-18T05:58:38.247Z,17.75
2022-08-18T06:01:05.812Z,14.53
2022-08-18T06:03:45.512Z,13.70
2022-08-18T06:06:00.971Z,14.23
2022-08-18T06:08:28.544Z,15.15
2022-08-18T06:10:57.792Z,15.57
2022-08-18T06:13:25.356Z,17.83
2022-08-18T06:16:17.173Z,15.35
2022-08-18T06:18:50.428Z,12.20
2022-08-18T06:21:39.305Z,11.83
2022-08-18T06:24:10.536Z,14.33
2022-08-18T06:26:53.844Z,14.55
2022-08-18T06:29:39.455Z,14.87
2022-08-18T06:32:28.474Z,12.30
2022-08-18T06:34:58.825Z,13.47
2022-08-18T06:37:29.097Z,14.50
2022-08-18T06:39:56.738Z,17.87
2022-08-18T06:42:24.275Z,17.53
2022-08-18T06:44:54.332Z,16.55
2022-08-18T06:47:46.148Z,17.47
2022-08-18T06:50:22.180Z,17.30
2022-08-18T06:52:52.432Z,17.93
2022-08-18T06:55:19.985Z,14.47
2022-08-18T06:57:59.985Z,17.13
2022-08-18T07:00:27.568Z,16.00
2022-08-18T07:02:57.899Z,22.80
2022-08-18T07:05:31.097Z,16.00
2022-08-18T07:08:07.386Z,16.87
2022-08-18T07:10:34.938Z,16.33
2022-08-18T07:13:09.513Z,16.20
2022-08-18T07:15:37.067Z,18.50
2022-08-18T07:18:04.632Z,17.93
2022-08-18T07:20:32.236Z,14.30
2022-08-18T07:23:00.568Z,14.10
2022-08-18T07:25:30.584Z,15.83
2022-08-18T07:27:58.227Z,16.80
2022-08-18T07:30:25.790Z,14.00
2022-08-18T07:33:01.764Z,14.73
2022-08-18T07:35:29.371Z,15.10
2022-08-18T07:38:40.699Z,14.97
2022-08-18T07:40:39.918Z,14.47
2022-08-18T07:43:07.461Z,15.97
2022-08-18T07:45:37.664Z,18.13
2022-08-18T07:48:36.553Z,17.27
2022-08-18T07:50:58.351Z,14.17
2022-08-18T07:53:26.792Z,15.90
2022-08-18T07:55:54.366Z,13.83
2022-08-18T07:58:27.395Z,14.37
2022-08-18T08:00:59.145Z,14.60
2022-08-18T08:03:29.859Z,14.33
2022-08-18T08:05:57.424Z,14.77
2022-08-18T08:08:31.083Z,16.00
2022-08-18T08:11:04.609Z,15.70
2022-08-18T08:13:56.005Z,14.33
2022-08-18T08:16:26.288Z,15.90
2022-08-18T08:19:12.571Z,14.47
2022-08-18T08:21:36.885Z,16.90
2022-08-18T08:24:22.843Z,16.37
2022-08-18T08:27:02.516Z,15.90
2022-08-18T08:29:49.084Z,16.47
2022-08-18T08:32:16.805Z,16.07
2022-08-18T08:34:49.884Z,17.62
2022-08-18T08:37:20.560Z,16.45
2022-08-18T08:39:54.160Z,14.17
2022-08-18T08:42:30.697Z,13.20
2022-08-18T08:44:59.091Z,13.93
2022-08-18T08:47:25.596Z,13.63
2022-08-18T08:50:02.697Z,16.73
2022-08-18T08:52:36.193Z,15.43
2022-08-18T08:55:03.964Z,14.97
2022-08-18T08:57:31.824Z,14.03
2022-08-18T08:59:59.408Z,14.23
2022-08-18T09:02:46.741Z,14.47
2022-08-18T09:05:09.951Z,14.13
2022-08-18T09:07:39.961Z,13.93
2022-08-18T09:10:35.794Z,14.93
2022-08-18T09:13:03.349Z,13.23
2022-08-18T09:15:40.713Z,13.27
2022-08-18T09:18:26.629Z,13.17
2022-08-18T09:21:08.963Z,15.70
2022-08-18T09:23:36.530Z,14.00
2022-08-18T09:26:21.556Z,13.73
2022-08-18T09:28:52.763Z,12.47
2022-08-18T09:31:20.337Z,13.33
2022-08-18T09:34:05.063Z,13.80
2022-08-18T09:36:48.428Z,15.73
2022-08-18T09:39:42.456Z,16.67
2022-08-18T09:42:15.910Z,16.37
2022-08-18T09:44:48.570Z,14.63
2022-08-18T09:47:22.293Z,13.97
2022-08-18T09:49:53.118Z,15.27
2022-08-18T09:52:24.405Z,14.80
2022-08-18T09:54:59.189Z,13.93
2022-08-18T09:57:26.746Z,12.77
2022-08-18T09:59:57.192Z,11.70
2022-08-18T10:02:30.429Z,12.97
2022-08-18T10:05:16.080Z,12.77
2022-08-18T10:07:58.128Z,12.67
2022-08-18T10:11:02.239Z,14.13
2022-08-18T10:13:11.212Z,11.93
2022-08-18T10:16:10.175Z,11.50
2022-08-18T10:18:37.557Z,10.23
2022-08-18T10:21:20.918Z,13.50
2022-08-18T10:24:03.139Z,9.67
2022-08-18T10:26:32.540Z,10.47
2022-08-18T10:29:21.877Z,10.40
2022-08-18T10:31:58.629Z,10.37
2022-08-18T10:34:40.818Z,9.83
2022-08-18T10:37:32.830Z,7.70
2022-08-18T10:40:03.699Z,7.07
2022-08-18T10:42:53.559Z,7.73
2022-08-18T10:45:29.885Z,8.13
2022-08-18T10:48:16.871Z,8.10
2022-08-18T10:50:34.062Z,7.87
2022-08-18T10:55:50.555Z,8.50
2022-08-18T10:58:20.833Z,11.50
2022-08-18T11:01:03.685Z,14.00
2022-08-18T11:03:52.136Z,8.67
2022-08-18T11:06:01.752Z,10.00
2022-08-18T11:08:31.671Z,7.97
2022-08-18T11:11:24.439Z,7.60
2022-08-18T11:13:33.256Z,8.73
2022-08-18T11:16:18.977Z,8.23
2022-08-18T11:18:46.542Z,8.90
2022-08-18T11:21:25.824Z,8.90
2022-08-18T11:24:14.177Z,8.93
2022-08-18T11:26:52.897Z,8.77
2022-08-18T11:29:17.917Z,8.23
2022-08-18T11:31:45.510Z,8.27
2022-08-18T11:34:19.811Z,8.23
2022-08-18T11:36:50.130Z,7.90
2022-08-18T11:39:10.749Z,8.73
2022-08-18T11:41:48.588Z,7.93
2022-08-18T11:44:05.878Z,8.17
2022-08-18T11:46:37.046Z,8.20
2022-08-18T11:49:04.454Z,8.23
2022-08-18T11:51:31.317Z,8.33
2022-08-18T11:53:59.953Z,7.50
2022-08-18T11:59:06.566Z,7.37
2022-08-18T12:01:46.476Z,7.40
2022-08-18T12:04:14.025Z,7.90
2022-08-18T12:11:58.417Z,7.83
2022-08-18T12:14:32.286Z,7.27
2022-08-18T12:16:54.168Z,8.30
2022-08-18T12:19:21.120Z,8.20
2022-08-18T12:21:54.919Z,8.10
2022-08-18T12:24:26.184Z,7.10
2022-08-18T12:26:50.073Z,7.20
2022-08-18T12:29:17.627Z,6.73
2022-08-18T12:31:48.070Z,7.57
2022-08-18T12:34:13.477Z,6.93
2022-08-18T12:36:41.490Z,7.40
2022-08-18T12:39:09.082Z,6.93
2022-08-18T12:41:36.825Z,7.17
2022-08-18T12:44:04.187Z,6.87
2022-08-18T12:46:32.342Z,7.18
2022-08-18T12:48:59.916Z,6.90
2022-08-18T12:51:30.576Z,6.40
2022-08-18T12:53:59.794Z,7.23
2022-08-18T12:56:23.428Z,7.03
2022-08-18T12:58:51.005Z,6.60
2022-08-18T13:01:18.652Z,7.20
2022-08-18T13:03:52.628Z,7.37
2022-08-18T13:06:13.718Z,8.23
2022-08-18T13:08:48.186Z,7.13
2022-08-18T13:11:18.805Z,7.17
2022-08-18T13:13:36.489Z,7.00
2022-08-18T13:16:04.044Z,7.50
2022-08-18T13:18:32.399Z,7.93
2022-08-18T13:20:59.962Z,7.60
2022-08-18T13:23:27.796Z,7.80
2022-08-18T13:25:59.499Z,8.10
2022-08-18T13:28:22.703Z,7.63
2022-08-18T13:30:50.305Z,7.20
2022-08-18T13:33:34.801Z,7.13
2022-08-18T13:35:45.474Z,7.93
2022-08-18T13:38:17.414Z,7.85
2022-08-18T13:40:45.471Z,7.37
2022-08-18T13:43:09.331Z,6.87
2022-08-18T13:45:36.549Z,7.87
2022-08-18T13:48:04.146Z,7.33
2022-08-18T13:50:31.668Z,6.73
2022-08-18T13:53:02.004Z,6.70
2022-08-18T13:55:30.291Z,7.23
2022-08-18T13:57:57.857Z,7.03
2022-08-18T14:00:30.528Z,7.17
2022-08-18T14:02:53.046Z,6.72
2022-08-18T14:05:20.649Z,7.60
2022-08-18T14:07:48.525Z,6.80
2022-08-18T14:10:16.081Z,6.90
2022-08-18T14:12:43.635Z,7.47
2022-08-18T14:15:11.584Z,7.23
2022-08-18T14:17:39.177Z,7.23
2022-08-18T14:20:27.253Z,7.63
2022-08-18T14:23:13.337Z,8.37
2022-08-18T14:25:59.666Z,7.40
2022-08-18T14:28:27.841Z,7.63
2022-08-18T14:30:55.430Z,7.60
2022-08-18T14:33:34.424Z,7.87
2022-08-18T14:36:06.037Z,7.90
2022-08-18T14:38:18.169Z,7.43
2022-08-18T14:40:46.402Z,7.50
2022-08-18T14:43:14.194Z,7.07
2022-08-18T14:45:42.288Z,6.87
2022-08-18T14:48:11.179Z,7.90
2022-08-18T14:50:37.542Z,7.37
2022-08-18T14:53:05.108Z,7.43
2022-08-18T14:55:32.702Z,7.63
2022-08-18T14:58:00.263Z,7.23
2022-08-18T15:00:28.014Z,7.07
2022-08-18T15:02:55.431Z,7.83
2022-08-18T15:05:24.360Z,7.30
2022-08-18T15:07:50.623Z,8.30
2022-08-18T15:10:19.966Z,7.90
2022-08-18T15:12:45.760Z,7.23
2022-08-18T15:15:15.959Z,7.50
2022-08-18T15:17:41.512Z,7.83
2022-08-18T15:20:09.097Z,8.07
2022-08-18T15:22:58.530Z,7.50
2022-08-18T15:25:35.134Z,9.97
2022-08-18T15:28:02.708Z,7.70
2022-08-18T15:30:31.086Z,9.47
2022-08-18T15:32:58.587Z,7.90
2022-08-18T15:35:26.487Z,7.80
2022-08-18T15:37:54.149Z,7.80
2022-08-18T15:40:30.816Z,7.67
2022-08-18T15:42:52.361Z,8.82
2022-08-18T15:45:19.819Z,7.87
2022-08-18T15:47:47.384Z,8.55
2022-08-18T15:50:25.285Z,8.33
2022-08-18T15:52:49.235Z,8.10
2022-08-18T15:55:19.424Z,7.70
2022-08-18T15:57:46.991Z,8.07
2022-08-18T16:00:14.563Z,7.90
2022-08-18T16:02:44.757Z,8.87
2022-08-18T16:05:12.017Z,8.50
2022-08-18T16:07:41.263Z,8.73
2022-08-18T16:10:04.888Z,8.40
2022-08-18T16:12:32.505Z,8.45
2022-08-18T16:15:00.173Z,7.80
2022-08-18T16:17:31.809Z,9.07
2022-08-18T16:19:55.247Z,8.23
2022-08-18T16:22:22.820Z,8.80
2022-08-18T16:24:54.879Z,11.13
2022-08-18T16:27:17.989Z,7.93
2022-08-18T16:29:46.353Z,7.67
2022-08-18T16:32:16.353Z,10.27
2022-08-18T16:34:42.080Z,8.23
2022-08-18T16:37:09.696Z,9.07
2022-08-18T16:39:37.292Z,8.77
2022-08-18T16:42:04.816Z,9.45
2022-08-18T16:44:32.391Z,12.17
2022-08-18T16:47:00.001Z,12.53
2022-08-18T16:49:27.562Z,8.17
2022-08-18T16:51:55.140Z,10.20
2022-08-18T16:54:23.502Z,10.43
2022-08-18T16:56:51.077Z,8.73
2022-08-18T16:59:37.695Z,8.80
2022-08-18T17:02:23.096Z,9.93
2022-08-18T17:04:54.292Z,8.77
2022-08-18T17:07:21.851Z,9.53
2022-08-18T17:09:49.445Z,8.10
2022-08-18T17:12:18.171Z,8.30
2022-08-18T17:14:47.176Z,8.57
2022-08-18T17:17:13.278Z,7.67
2022-08-18T17:19:40.879Z,9.07
2022-08-18T17:22:08.444Z,7.93
2022-08-18T17:24:36.008Z,7.03
2022-08-18T17:27:26.281Z,6.93
2022-08-18T17:29:50.722Z,7.13
2022-08-18T17:32:27.471Z,7.80
2022-08-18T17:35:00.552Z,7.55
2022-08-18T17:37:28.111Z,7.50
2022-08-18T17:39:55.760Z,7.30
2022-08-18T17:42:25.915Z,6.90
2022-08-18T17:44:59.396Z,7.13
2022-08-18T17:47:26.991Z,9.27
2022-08-18T17:50:27.883Z,7.07
2022-08-18T17:52:40.421Z,7.00
2022-08-18T17:55:08.744Z,7.90
2022-08-18T17:57:36.315Z,6.47
2022-08-18T18:00:06.955Z,6.30
2022-08-18T18:02:34.506Z,6.78
2022-08-18T18:05:02.110Z,6.60
2022-08-18T18:07:29.695Z,8.10
2022-08-18T18:10:03.006Z,7.03
2022-08-18T18:12:30.548Z,7.40
2022-08-18T18:14:58.125Z,7.60
2022-08-18T18:17:28.735Z,6.33
2022-08-18T18:20:15.654Z,6.43
2022-08-18T18:22:42.202Z,9.57
2022-08-18T18:25:09.737Z,6.57
2022-08-18T18:27:37.420Z,7.30
2022-08-18T18:30:04.984Z,7.53
2022-08-18T18:32:34.951Z,6.63
2022-08-18T18:35:15.836Z,10.33
2022-08-18T18:37:47.083Z,7.10
2022-08-18T18:40:26.521Z,7.17
2022-08-18T18:42:54.881Z,7.47
2022-08-18T18:45:25.173Z,6.97
2022-08-18T18:47:58.781Z,7.90
2022-08-18T18:50:38.327Z,7.47
2022-08-18T18:53:06.184Z,7.63
2022-08-18T18:55:33.743Z,7.97
2022-08-18T18:58:13.145Z,6.70
2022-08-18T19:00:41.491Z,6.97
2022-08-18T19:03:09.067Z,9.47
2022-08-18T19:05:45.654Z,8.87
2022-08-18T19:08:40.444Z,7.07
2022-08-18T19:11:45.661Z,6.63
2022-08-18T19:14:15.930Z,7.93
2022-08-18T19:16:52.438Z,7.03
2022-08-18T19:19:35.447Z,7.03
2022-08-18T19:22:04.169Z,7.40
2022-08-18T19:24:18.299Z,7.60
2022-08-18T19:26:45.888Z,7.57
2022-08-18T19:29:16.492Z,7.93
2022-08-18T19:31:49.780Z,7.73
2022-08-18T19:34:30.997Z,8.80
2022-08-18T19:37:05.697Z,7.70
2022-08-18T19:40:00.401Z,6.57
2022-08-18T19:42:43.608Z,9.07
2022-08-18T19:45:17.613Z,7.50
2022-08-18T19:47:56.798Z,10.10
2022-08-18T19:50:34.000Z,7.17
2022-08-18T19:53:04.578Z,8.10
2022-08-18T19:55:46.873Z,7.27
2022-08-18T19:58:32.853Z,8.13
2022-08-18T20:01:06.195Z,7.60
2022-08-18T20:03:59.749Z,9.40
2022-08-18T20:06:48.322Z,7.57
2022-08-18T20:09:16.947Z,8.32
2022-08-18T20:11:56.520Z,7.50
2022-08-18T20:14:24.106Z,8.33
2022-08-18T20:17:09.642Z,7.70
2022-08-18T20:19:39.670Z,8.20
2022-08-18T20:22:07.261Z,7.27
2022-08-18T20:24:34.800Z,7.67
2022-08-18T20:27:23.225Z,7.70
2022-08-18T20:29:50.829Z,9.20
2022-08-18T20:32:31.064Z,8.77
2022-08-18T20:34:58.679Z,9.43
2022-08-18T20:37:27.444Z,9.00
2022-08-18T20:39:53.846Z,8.73
2022-08-18T20:42:22.172Z,8.10
2022-08-18T20:44:50.499Z,8.77
2022-08-18T20:47:26.505Z,8.40
2022-08-18T20:50:04.005Z,8.17
2022-08-18T20:52:38.035Z,9.67
2022-08-18T20:55:12.042Z,9.70
2022-08-18T20:57:39.462Z,10.20
2022-08-18T21:00:15.957Z,9.20
2022-08-18T21:02:52.512Z,9.33
2022-08-18T21:05:27.984Z,9.10
2022-08-18T21:08:15.000Z,12.37
2022-08-18T21:10:51.691Z,9.20
2022-08-18T21:13:43.093Z,12.63
2022-08-18T21:16:10.687Z,8.57
2022-08-18T21:18:38.260Z,8.67
2022-08-18T21:21:05.835Z,10.93
2022-08-18T21:23:35.920Z,9.77
2022-08-18T21:26:06.881Z,11.43
2022-08-18T21:28:34.450Z,11.40
2022-08-18T21:31:29.314Z,9.30
2022-08-18T21:33:32.556Z,9.83
2022-08-18T21:36:00.121Z,15.07
2022-08-18T21:38:28.513Z,10.10
2022-08-18T21:40:56.844Z,10.20
2022-08-18T21:43:48.840Z,10.73
2022-08-18T21:46:12.924Z,11.55
2022-08-18T21:48:45.615Z,10.37
2022-08-18T21:51:22.326Z,10.77
2022-08-18T21:53:49.860Z,11.27
2022-08-18T21:56:20.114Z,11.90
2022-08-18T21:58:47.721Z,11.33
2022-08-18T22:01:24.295Z,11.73
2022-08-18T22:03:54.643Z,10.53
2022-08-18T22:06:34.193Z,11.60
2022-08-18T22:09:04.504Z,10.50
2022-08-18T22:12:00.833Z,10.67
2022-08-18T22:14:53.860Z,10.07
2022-08-18T22:17:25.909Z,10.40
2022-08-18T22:19:54.272Z,10.00
2022-08-18T22:22:39.953Z,10.37
2022-08-18T22:25:07.547Z,10.68
2022-08-18T22:27:35.865Z,11.50
2022-08-18T22:30:06.139Z,11.20
2022-08-18T22:32:37.435Z,10.40
2022-08-18T22:35:05.727Z,10.47
2022-08-18T22:37:33.290Z,11.77
2022-08-18T22:40:01.313Z,12.10
2022-08-18T22:42:28.824Z,12.60
2022-08-18T22:45:00.131Z,13.77
2022-08-18T22:47:24.030Z,15.33
2022-08-18T22:49:52.384Z,16.23
2022-08-18T22:52:29.594Z,11.60
2022-08-18T22:54:52.582Z,12.17
2022-08-18T22:57:20.159Z,11.93
2022-08-18T22:59:48.492Z,11.37
2022-08-18T23:02:16.360Z,11.97
2022-08-18T23:04:43.935Z,12.65
2022-08-18T23:07:11.502Z,14.17
2022-08-18T23:09:39.102Z,11.50
2022-08-18T23:12:06.677Z,13.15
2022-08-18T23:14:34.241Z,12.40
2022-08-18T23:17:01.845Z,12.00
2022-08-18T23:19:29.410Z,10.83
2022-08-18T23:21:56.964Z,12.93
2022-08-18T23:24:25.623Z,11.40
2022-08-18T23:26:53.175Z,11.97
2022-08-18T23:29:20.729Z,12.13
2022-08-18T23:31:48.336Z,11.60
2022-08-18T23:34:15.898Z,17.53
2022-08-18T23:36:45.790Z,12.70
2022-08-18T23:39:11.841Z,11.47
2022-08-18T23:41:39.408Z,11.30
2022-08-18T23:44:07.740Z,11.57
2022-08-18T23:46:35.620Z,11.73
2022-08-18T23:49:03.185Z,11.43
2022-08-18T23:51:33.200Z,16.93
2022-08-18T23:54:01.167Z,19.23
2022-08-18T23:56:28.741Z,17.50
2022-08-18T23:58:57.345Z,14.95
